sensor_id;sensor_type;location;lat;lon;timestamp;temperature;humidity
22678;DHT22;26259;50.214;18.620;2022-12-11T00:01:23;0.80;99.90
22678;DHT22;26259;50.214;18.620;2022-12-11T00:03:50;0.80;99.90
22678;DHT22;26259;50.214;18.620;2022-12-11T00:06:18;0.80;99.90
22678;DHT22;26259;50.214;18.620;2022-12-11T00:08:44;0.80;99.90
22678;DHT22;26259;50.214;18.620;2022-12-11T00:11:12;0.70;99.90
22678;DHT22;26259;50.214;18.620;2022-12-11T00:13:38;0.80;99.90
22678;DHT22;26259;50.214;18.620;2022-12-11T00:16:04;0.80;99.90
22678;DHT22;26259;50.214;18.620;2022-12-11T00:18:30;0.70;99.90
22678;DHT22;26259;50.214;18.620;2022-12-11T00:20:59;0.70;99.90
22678;DHT22;26259;50.214;18.620;2022-12-11T00:23:26;0.70;99.90
22678;DHT22;26259;50.214;18.620;2022-12-11T00:25:51;0.70;99.90
22678;DHT22;26259;50.214;18.620;2022-12-11T00:28:17;0.70;99.90
22678;DHT22;26259;50.214;18.620;2022-12-11T00:30:46;0.80;99.90
22678;DHT22;26259;50.214;18.620;2022-12-11T00:33:13;0.70;99.90
22678;DHT22;26259;50.214;18.620;2022-12-11T00:35:45;0.70;99.90
22678;DHT22;26259;50.214;18.620;2022-12-11T00:38:15;0.70;99.90
22678;DHT22;26259;50.214;18.620;2022-12-11T00:40:41;0.70;99.90
22678;DHT22;26259;50.214;18.620;2022-12-11T00:43:07;0.70;99.90
22678;DHT22;26259;50.214;18.620;2022-12-11T00:45:44;0.80;99.90
22678;DHT22;26259;50.214;18.620;2022-12-11T00:48:11;0.70;99.90
22678;DHT22;26259;50.214;18.620;2022-12-11T00:50:37;0.70;99.90
22678;DHT22;26259;50.214;18.620;2022-12-11T00:53:04;0.70;99.90
22678;DHT22;26259;50.214;18.620;2022-12-11T00:55:30;0.70;99.90
22678;DHT22;26259;50.214;18.620;2022-12-11T00:57:56;0.70;99.90
22678;DHT22;26259;50.214;18.620;2022-12-11T01:00:22;0.70;99.90
22678;DHT22;26259;50.214;18.620;2022-12-11T01:02:49;0.70;99.90
22678;DHT22;26259;50.214;18.620;2022-12-11T01:05:15;0.80;99.90
22678;DHT22;26259;50.214;18.620;2022-12-11T01:07:41;0.80;99.90
22678;DHT22;26259;50.214;18.620;2022-12-11T01:10:07;0.80;99.90
22678;DHT22;26259;50.214;18.620;2022-12-11T01:15:17;0.70;99.90
22678;DHT22;26259;50.214;18.620;2022-12-11T01:17:43;0.70;99.90
22678;DHT22;26259;50.214;18.620;2022-12-11T01:20:09;0.70;99.90
22678;DHT22;26259;50.214;18.620;2022-12-11T01:22:34;0.70;99.90
22678;DHT22;26259;50.214;18.620;2022-12-11T01:25:01;0.70;99.90
22678;DHT22;26259;50.214;18.620;2022-12-11T01:27:26;0.70;99.90
22678;DHT22;26259;50.214;18.620;2022-12-11T01:29:52;0.60;99.90
22678;DHT22;26259;50.214;18.620;2022-12-11T01:32:17;0.70;99.90
22678;DHT22;26259;50.214;18.620;2022-12-11T01:34:43;0.70;99.90
22678;DHT22;26259;50.214;18.620;2022-12-11T01:37:09;0.70;99.90
22678;DHT22;26259;50.214;18.620;2022-12-11T01:39:35;0.70;99.90
22678;DHT22;26259;50.214;18.620;2022-12-11T01:42:03;0.70;99.90
22678;DHT22;26259;50.214;18.620;2022-12-11T01:46:54;0.70;99.90
22678;DHT22;26259;50.214;18.620;2022-12-11T01:49:22;0.70;99.90
22678;DHT22;26259;50.214;18.620;2022-12-11T01:52:02;0.70;99.90
22678;DHT22;26259;50.214;18.620;2022-12-11T01:54:31;0.70;99.90
22678;DHT22;26259;50.214;18.620;2022-12-11T01:57:03;0.70;99.90
22678;DHT22;26259;50.214;18.620;2022-12-11T01:59:31;0.70;99.90
22678;DHT22;26259;50.214;18.620;2022-12-11T02:02:14;0.70;99.90
22678;DHT22;26259;50.214;18.620;2022-12-11T02:04:42;0.70;99.90
22678;DHT22;26259;50.214;18.620;2022-12-11T02:07:08;0.70;99.90
22678;DHT22;26259;50.214;18.620;2022-12-11T02:09:36;0.60;99.90
22678;DHT22;26259;50.214;18.620;2022-12-11T02:17:40;0.70;99.90
22678;DHT22;26259;50.214;18.620;2022-12-11T02:30:39;0.60;99.90
22678;DHT22;26259;50.214;18.620;2022-12-11T02:33:06;0.60;99.90
22678;DHT22;26259;50.214;18.620;2022-12-11T02:35:40;0.60;99.90
22678;DHT22;26259;50.214;18.620;2022-12-11T02:38:11;0.60;99.90
22678;DHT22;26259;50.214;18.620;2022-12-11T02:40:39;0.60;99.90
22678;DHT22;26259;50.214;18.620;2022-12-11T02:43:09;0.60;99.90
22678;DHT22;26259;50.214;18.620;2022-12-11T02:45:37;0.60;99.90
22678;DHT22;26259;50.214;18.620;2022-12-11T02:48:05;0.60;99.90
22678;DHT22;26259;50.214;18.620;2022-12-11T02:50:33;0.60;99.90
22678;DHT22;26259;50.214;18.620;2022-12-11T02:53:02;0.60;99.90
22678;DHT22;26259;50.214;18.620;2022-12-11T02:55:29;0.60;99.90
22678;DHT22;26259;50.214;18.620;2022-12-11T02:58:23;0.60;99.90
22678;DHT22;26259;50.214;18.620;2022-12-11T03:00:50;0.60;99.90
22678;DHT22;26259;50.214;18.620;2022-12-11T03:03:16;0.60;99.90
22678;DHT22;26259;50.214;18.620;2022-12-11T03:05:42;0.60;99.90
22678;DHT22;26259;50.214;18.620;2022-12-11T03:08:08;0.60;99.90
22678;DHT22;26259;50.214;18.620;2022-12-11T03:10:34;0.60;99.90
22678;DHT22;26259;50.214;18.620;2022-12-11T03:13:00;0.60;99.90
22678;DHT22;26259;50.214;18.620;2022-12-11T03:15:33;0.60;99.90
22678;DHT22;26259;50.214;18.620;2022-12-11T03:18:35;0.60;99.90
22678;DHT22;26259;50.214;18.620;2022-12-11T03:21:08;0.50;99.90
22678;DHT22;26259;50.214;18.620;2022-12-11T03:24:06;0.60;99.90
22678;DHT22;26259;50.214;18.620;2022-12-11T03:26:39;0.60;99.90
22678;DHT22;26259;50.214;18.620;2022-12-11T03:29:16;0.50;99.90
22678;DHT22;26259;50.214;18.620;2022-12-11T03:31:53;0.60;99.90
22678;DHT22;26259;50.214;18.620;2022-12-11T03:34:31;0.50;99.90
22678;DHT22;26259;50.214;18.620;2022-12-11T03:36:59;0.50;99.90
22678;DHT22;26259;50.214;18.620;2022-12-11T03:39:29;0.50;99.90
22678;DHT22;26259;50.214;18.620;2022-12-11T03:41:57;0.50;99.90
22678;DHT22;26259;50.214;18.620;2022-12-11T03:44:26;0.50;99.90
22678;DHT22;26259;50.214;18.620;2022-12-11T03:46:53;0.50;99.90
22678;DHT22;26259;50.214;18.620;2022-12-11T03:49:25;0.50;99.90
22678;DHT22;26259;50.214;18.620;2022-12-11T03:51:54;0.50;99.90
22678;DHT22;26259;50.214;18.620;2022-12-11T03:54:22;0.50;99.90
22678;DHT22;26259;50.214;18.620;2022-12-11T03:56:50;0.50;99.90
22678;DHT22;26259;50.214;18.620;2022-12-11T03:59:17;0.50;99.90
22678;DHT22;26259;50.214;18.620;2022-12-11T04:01:43;0.50;99.90
22678;DHT22;26259;50.214;18.620;2022-12-11T04:04:09;0.50;99.90
22678;DHT22;26259;50.214;18.620;2022-12-11T04:06:34;0.40;99.90
22678;DHT22;26259;50.214;18.620;2022-12-11T04:09:00;0.50;99.90
22678;DHT22;26259;50.214;18.620;2022-12-11T04:11:25;0.50;99.90
22678;DHT22;26259;50.214;18.620;2022-12-11T04:14:09;0.50;99.90
22678;DHT22;26259;50.214;18.620;2022-12-11T04:16:54;0.40;99.90
22678;DHT22;26259;50.214;18.620;2022-12-11T04:19:20;0.40;99.90
22678;DHT22;26259;50.214;18.620;2022-12-11T04:22:05;0.40;99.90
22678;DHT22;26259;50.214;18.620;2022-12-11T04:25:05;0.40;99.90
22678;DHT22;26259;50.214;18.620;2022-12-11T04:27:31;0.30;99.90
22678;DHT22;26259;50.214;18.620;2022-12-11T04:30:21;0.30;99.90
22678;DHT22;26259;50.214;18.620;2022-12-11T04:32:47;0.30;99.90
22678;DHT22;26259;50.214;18.620;2022-12-11T04:35:13;0.30;99.90
22678;DHT22;26259;50.214;18.620;2022-12-11T04:37:39;0.30;99.90
22678;DHT22;26259;50.214;18.620;2022-12-11T04:40:08;0.30;99.90
22678;DHT22;26259;50.214;18.620;2022-12-11T04:42:34;0.30;99.90
22678;DHT22;26259;50.214;18.620;2022-12-11T04:44:59;0.30;99.90
22678;DHT22;26259;50.214;18.620;2022-12-11T04:47:25;0.30;99.90
22678;DHT22;26259;50.214;18.620;2022-12-11T04:49:51;0.30;99.90
22678;DHT22;26259;50.214;18.620;2022-12-11T04:52:17;0.30;99.90
22678;DHT22;26259;50.214;18.620;2022-12-11T04:54:43;0.30;99.90
22678;DHT22;26259;50.214;18.620;2022-12-11T04:57:08;0.20;99.90
22678;DHT22;26259;50.214;18.620;2022-12-11T04:59:34;0.20;99.90
22678;DHT22;26259;50.214;18.620;2022-12-11T05:02:00;0.20;99.90
22678;DHT22;26259;50.214;18.620;2022-12-11T05:04:30;0.20;99.90
22678;DHT22;26259;50.214;18.620;2022-12-11T05:06:56;0.10;99.90
22678;DHT22;26259;50.214;18.620;2022-12-11T05:09:22;0.10;99.90
22678;DHT22;26259;50.214;18.620;2022-12-11T05:11:47;0.10;99.90
22678;DHT22;26259;50.214;18.620;2022-12-11T05:14:13;0.10;99.90
22678;DHT22;26259;50.214;18.620;2022-12-11T05:16:38;0.10;99.90
22678;DHT22;26259;50.214;18.620;2022-12-11T05:19:04;0.10;99.90
22678;DHT22;26259;50.214;18.620;2022-12-11T05:21:30;0.10;99.90
22678;DHT22;26259;50.214;18.620;2022-12-11T05:23:55;0.10;99.90
22678;DHT22;26259;50.214;18.620;2022-12-11T05:26:21;0.00;99.90
22678;DHT22;26259;50.214;18.620;2022-12-11T05:28:50;0.00;99.90
22678;DHT22;26259;50.214;18.620;2022-12-11T05:31:22;0.00;99.90
22678;DHT22;26259;50.214;18.620;2022-12-11T05:33:48;0.10;99.90
22678;DHT22;26259;50.214;18.620;2022-12-11T05:36:29;0.10;99.90
22678;DHT22;26259;50.214;18.620;2022-12-11T05:38:57;0.00;99.90
22678;DHT22;26259;50.214;18.620;2022-12-11T05:41:25;0.00;99.90
22678;DHT22;26259;50.214;18.620;2022-12-11T05:43:51;0.00;99.90
22678;DHT22;26259;50.214;18.620;2022-12-11T05:46:24;0.00;99.90
22678;DHT22;26259;50.214;18.620;2022-12-11T05:48:53;0.00;99.90
22678;DHT22;26259;50.214;18.620;2022-12-11T05:51:19;0.00;99.90
22678;DHT22;26259;50.214;18.620;2022-12-11T05:53:47;0.00;99.90
22678;DHT22;26259;50.214;18.620;2022-12-11T05:56:19;-0.10;99.90
22678;DHT22;26259;50.214;18.620;2022-12-11T05:58:46;-0.10;99.90
22678;DHT22;26259;50.214;18.620;2022-12-11T06:03:45;-0.10;99.90
22678;DHT22;26259;50.214;18.620;2022-12-11T06:06:11;-0.10;99.90
22678;DHT22;26259;50.214;18.620;2022-12-11T06:08:37;-0.10;99.90
22678;DHT22;26259;50.214;18.620;2022-12-11T06:11:03;-0.10;99.90
22678;DHT22;26259;50.214;18.620;2022-12-11T06:13:28;-0.10;99.90
22678;DHT22;26259;50.214;18.620;2022-12-11T06:15:54;-0.10;99.90
22678;DHT22;26259;50.214;18.620;2022-12-11T06:18:20;-0.10;99.90
22678;DHT22;26259;50.214;18.620;2022-12-11T06:20:46;-0.10;99.90
22678;DHT22;26259;50.214;18.620;2022-12-11T06:23:11;-0.10;99.90
22678;DHT22;26259;50.214;18.620;2022-12-11T06:25:38;-0.10;99.90
22678;DHT22;26259;50.214;18.620;2022-12-11T06:28:04;-0.10;99.90
22678;DHT22;26259;50.214;18.620;2022-12-11T06:30:29;-0.10;99.90
22678;DHT22;26259;50.214;18.620;2022-12-11T06:32:57;-0.20;99.90
22678;DHT22;26259;50.214;18.620;2022-12-11T06:35:22;-0.20;99.90
22678;DHT22;26259;50.214;18.620;2022-12-11T06:37:48;-0.20;99.90
22678;DHT22;26259;50.214;18.620;2022-12-11T06:40:14;-0.20;99.90
22678;DHT22;26259;50.214;18.620;2022-12-11T06:42:39;-0.20;99.90
22678;DHT22;26259;50.214;18.620;2022-12-11T06:45:05;-0.20;99.90
22678;DHT22;26259;50.214;18.620;2022-12-11T06:47:31;-0.20;99.90
22678;DHT22;26259;50.214;18.620;2022-12-11T06:49:57;-0.20;99.90
22678;DHT22;26259;50.214;18.620;2022-12-11T06:52:24;-0.20;99.90
22678;DHT22;26259;50.214;18.620;2022-12-11T06:54:51;-0.20;99.90
22678;DHT22;26259;50.214;18.620;2022-12-11T06:57:17;-0.20;99.90
22678;DHT22;26259;50.214;18.620;2022-12-11T06:59:43;-0.20;99.90
22678;DHT22;26259;50.214;18.620;2022-12-11T07:02:17;-0.20;99.90
22678;DHT22;26259;50.214;18.620;2022-12-11T07:04:43;-0.20;99.90
22678;DHT22;26259;50.214;18.620;2022-12-11T07:07:09;-0.20;99.90
22678;DHT22;26259;50.214;18.620;2022-12-11T07:09:37;-0.30;99.90
22678;DHT22;26259;50.214;18.620;2022-12-11T07:12:03;-0.30;99.90
22678;DHT22;26259;50.214;18.620;2022-12-11T07:14:29;-0.30;99.90
22678;DHT22;26259;50.214;18.620;2022-12-11T07:16:55;-0.30;99.90
22678;DHT22;26259;50.214;18.620;2022-12-11T07:19:21;-0.30;99.90
22678;DHT22;26259;50.214;18.620;2022-12-11T07:21:46;-0.30;99.90
22678;DHT22;26259;50.214;18.620;2022-12-11T07:24:12;-0.40;99.90
22678;DHT22;26259;50.214;18.620;2022-12-11T07:26:37;-0.40;99.90
22678;DHT22;26259;50.214;18.620;2022-12-11T07:29:03;-0.40;99.90
22678;DHT22;26259;50.214;18.620;2022-12-11T07:31:29;-0.40;99.90
22678;DHT22;26259;50.214;18.620;2022-12-11T07:34:04;-0.40;99.90
22678;DHT22;26259;50.214;18.620;2022-12-11T07:36:30;-0.40;99.90
22678;DHT22;26259;50.214;18.620;2022-12-11T07:38:56;-0.40;99.90
22678;DHT22;26259;50.214;18.620;2022-12-11T07:41:23;-0.40;99.90
22678;DHT22;26259;50.214;18.620;2022-12-11T07:43:48;-0.40;99.90
22678;DHT22;26259;50.214;18.620;2022-12-11T07:46:19;-0.40;99.90
22678;DHT22;26259;50.214;18.620;2022-12-11T07:48:46;-0.40;99.90
22678;DHT22;26259;50.214;18.620;2022-12-11T07:51:15;-0.30;99.90
22678;DHT22;26259;50.214;18.620;2022-12-11T07:53:43;-0.40;99.90
22678;DHT22;26259;50.214;18.620;2022-12-11T07:56:08;-0.40;99.90
22678;DHT22;26259;50.214;18.620;2022-12-11T07:58:34;-0.30;99.90
22678;DHT22;26259;50.214;18.620;2022-12-11T08:01:00;-0.40;99.90
22678;DHT22;26259;50.214;18.620;2022-12-11T08:03:26;-0.30;99.90
22678;DHT22;26259;50.214;18.620;2022-12-11T08:05:52;-0.30;99.90
22678;DHT22;26259;50.214;18.620;2022-12-11T08:08:18;-0.30;99.90
22678;DHT22;26259;50.214;18.620;2022-12-11T08:10:44;-0.30;99.90
22678;DHT22;26259;50.214;18.620;2022-12-11T08:13:10;-0.30;99.90
22678;DHT22;26259;50.214;18.620;2022-12-11T08:15:36;-0.30;99.90
22678;DHT22;26259;50.214;18.620;2022-12-11T08:18:02;-0.30;99.90
22678;DHT22;26259;50.214;18.620;2022-12-11T08:20:27;-0.40;99.90
22678;DHT22;26259;50.214;18.620;2022-12-11T08:22:53;-0.40;99.90
22678;DHT22;26259;50.214;18.620;2022-12-11T08:25:18;-0.40;99.90
22678;DHT22;26259;50.214;18.620;2022-12-11T08:27:44;-0.40;99.90
22678;DHT22;26259;50.214;18.620;2022-12-11T08:30:10;-0.40;99.90
22678;DHT22;26259;50.214;18.620;2022-12-11T08:32:36;-0.40;99.90
22678;DHT22;26259;50.214;18.620;2022-12-11T08:35:01;-0.30;99.90
22678;DHT22;26259;50.214;18.620;2022-12-11T08:37:27;-0.30;99.90
22678;DHT22;26259;50.214;18.620;2022-12-11T08:39:54;-0.30;99.90
22678;DHT22;26259;50.214;18.620;2022-12-11T08:42:19;-0.30;99.90
22678;DHT22;26259;50.214;18.620;2022-12-11T08:44:46;-0.30;99.90
22678;DHT22;26259;50.214;18.620;2022-12-11T08:47:12;-0.30;99.90
22678;DHT22;26259;50.214;18.620;2022-12-11T08:49:39;-0.20;99.90
22678;DHT22;26259;50.214;18.620;2022-12-11T08:52:05;-0.20;99.90
22678;DHT22;26259;50.214;18.620;2022-12-11T08:54:31;-0.20;99.90
22678;DHT22;26259;50.214;18.620;2022-12-11T08:56:56;-0.20;99.90
22678;DHT22;26259;50.214;18.620;2022-12-11T08:59:22;-0.20;99.90
22678;DHT22;26259;50.214;18.620;2022-12-11T09:01:49;-0.20;99.90
22678;DHT22;26259;50.214;18.620;2022-12-11T09:04:15;-0.30;99.90
22678;DHT22;26259;50.214;18.620;2022-12-11T09:06:41;-0.30;99.90
22678;DHT22;26259;50.214;18.620;2022-12-11T09:09:06;-0.30;99.90
22678;DHT22;26259;50.214;18.620;2022-12-11T09:11:34;-0.30;99.90
22678;DHT22;26259;50.214;18.620;2022-12-11T09:14:00;-0.20;99.90
22678;DHT22;26259;50.214;18.620;2022-12-11T09:16:26;-0.20;99.90
22678;DHT22;26259;50.214;18.620;2022-12-11T09:18:54;-0.20;99.90
22678;DHT22;26259;50.214;18.620;2022-12-11T09:21:22;-0.10;99.90
22678;DHT22;26259;50.214;18.620;2022-12-11T09:23:51;-0.10;99.90
22678;DHT22;26259;50.214;18.620;2022-12-11T09:26:17;0.00;99.90
22678;DHT22;26259;50.214;18.620;2022-12-11T09:28:43;0.00;99.90
22678;DHT22;26259;50.214;18.620;2022-12-11T09:31:10;0.00;99.90
22678;DHT22;26259;50.214;18.620;2022-12-11T09:33:36;0.00;99.90
22678;DHT22;26259;50.214;18.620;2022-12-11T09:36:03;-0.10;99.90
22678;DHT22;26259;50.214;18.620;2022-12-11T09:38:30;-0.10;99.90
22678;DHT22;26259;50.214;18.620;2022-12-11T09:40:56;0.00;99.90
22678;DHT22;26259;50.214;18.620;2022-12-11T09:46:17;0.10;99.90
22678;DHT22;26259;50.214;18.620;2022-12-11T09:48:47;0.00;99.90
22678;DHT22;26259;50.214;18.620;2022-12-11T09:53:55;0.00;99.90
22678;DHT22;26259;50.214;18.620;2022-12-11T09:56:35;0.00;99.90
22678;DHT22;26259;50.214;18.620;2022-12-11T10:01:59;-0.10;99.90
22678;DHT22;26259;50.214;18.620;2022-12-11T10:05:19;-0.30;99.90
22678;DHT22;26259;50.214;18.620;2022-12-11T10:08:02;-0.40;99.90
22678;DHT22;26259;50.214;18.620;2022-12-11T10:10:43;-0.30;99.90
22678;DHT22;26259;50.214;18.620;2022-12-11T10:13:28;-0.30;99.90
22678;DHT22;26259;50.214;18.620;2022-12-11T10:16:19;-0.30;99.90
22678;DHT22;26259;50.214;18.620;2022-12-11T10:18:48;-0.30;99.90
22678;DHT22;26259;50.214;18.620;2022-12-11T10:21:15;-0.30;99.90
22678;DHT22;26259;50.214;18.620;2022-12-11T10:23:48;-0.40;99.90
22678;DHT22;26259;50.214;18.620;2022-12-11T10:26:18;-0.40;99.90
22678;DHT22;26259;50.214;18.620;2022-12-11T10:28:44;-0.40;99.90
22678;DHT22;26259;50.214;18.620;2022-12-11T10:31:45;-0.40;99.90
22678;DHT22;26259;50.214;18.620;2022-12-11T10:34:17;-0.40;99.90
22678;DHT22;26259;50.214;18.620;2022-12-11T10:36:45;-0.40;99.90
22678;DHT22;26259;50.214;18.620;2022-12-11T10:39:17;-0.40;99.90
22678;DHT22;26259;50.214;18.620;2022-12-11T10:41:45;-0.40;99.90
22678;DHT22;26259;50.214;18.620;2022-12-11T10:46:40;-0.40;99.90
22678;DHT22;26259;50.214;18.620;2022-12-11T10:49:23;-0.40;99.90
22678;DHT22;26259;50.214;18.620;2022-12-11T10:51:49;-0.40;99.90
22678;DHT22;26259;50.214;18.620;2022-12-11T10:54:40;-0.40;99.90
22678;DHT22;26259;50.214;18.620;2022-12-11T10:57:09;-0.40;99.90
22678;DHT22;26259;50.214;18.620;2022-12-11T10:59:49;-0.40;99.90
22678;DHT22;26259;50.214;18.620;2022-12-11T11:02:24;-0.50;99.90
22678;DHT22;26259;50.214;18.620;2022-12-11T11:04:51;-0.50;99.90
22678;DHT22;26259;50.214;18.620;2022-12-11T11:07:21;-0.50;99.90
22678;DHT22;26259;50.214;18.620;2022-12-11T11:09:48;-0.40;99.90
22678;DHT22;26259;50.214;18.620;2022-12-11T11:12:23;-0.40;99.90
22678;DHT22;26259;50.214;18.620;2022-12-11T11:15:13;-0.50;99.90
22678;DHT22;26259;50.214;18.620;2022-12-11T11:17:46;-0.60;99.90
22678;DHT22;26259;50.214;18.620;2022-12-11T11:20:18;-0.60;99.90
22678;DHT22;26259;50.214;18.620;2022-12-11T11:22:46;-0.60;99.90
22678;DHT22;26259;50.214;18.620;2022-12-11T11:25:20;-0.50;99.90
22678;DHT22;26259;50.214;18.620;2022-12-11T11:27:52;-0.50;99.90
22678;DHT22;26259;50.214;18.620;2022-12-11T11:30:22;-0.50;99.90
22678;DHT22;26259;50.214;18.620;2022-12-11T11:32:50;-0.50;99.90
22678;DHT22;26259;50.214;18.620;2022-12-11T11:35:24;-0.50;99.90
22678;DHT22;26259;50.214;18.620;2022-12-11T11:38:16;-0.40;99.90
22678;DHT22;26259;50.214;18.620;2022-12-11T11:41:05;-0.40;99.90
22678;DHT22;26259;50.214;18.620;2022-12-11T11:51:14;-0.40;99.90
22678;DHT22;26259;50.214;18.620;2022-12-11T11:53:40;-0.40;99.90
22678;DHT22;26259;50.214;18.620;2022-12-11T11:56:34;-0.50;99.90
22678;DHT22;26259;50.214;18.620;2022-12-11T12:01:59;-0.60;99.90
22678;DHT22;26259;50.214;18.620;2022-12-11T12:04:31;-0.50;99.90
22678;DHT22;26259;50.214;18.620;2022-12-11T12:07:09;-0.50;99.90
22678;DHT22;26259;50.214;18.620;2022-12-11T12:09:47;-0.50;99.90
22678;DHT22;26259;50.214;18.620;2022-12-11T12:12:42;-0.50;99.90
22678;DHT22;26259;50.214;18.620;2022-12-11T12:23:31;-0.60;99.90
22678;DHT22;26259;50.214;18.620;2022-12-11T12:31:42;-0.60;99.90
22678;DHT22;26259;50.214;18.620;2022-12-11T12:46:11;-0.60;99.90
22678;DHT22;26259;50.214;18.620;2022-12-11T12:48:40;-0.60;99.90
22678;DHT22;26259;50.214;18.620;2022-12-11T12:51:08;-0.60;99.90
22678;DHT22;26259;50.214;18.620;2022-12-11T12:53:37;-0.60;99.90
22678;DHT22;26259;50.214;18.620;2022-12-11T12:56:04;-0.70;99.90
22678;DHT22;26259;50.214;18.620;2022-12-11T12:58:40;-0.70;99.90
22678;DHT22;26259;50.214;18.620;2022-12-11T13:01:17;-0.70;99.90
22678;DHT22;26259;50.214;18.620;2022-12-11T13:03:52;-0.70;99.90
22678;DHT22;26259;50.214;18.620;2022-12-11T13:06:45;-0.70;99.90
22678;DHT22;26259;50.214;18.620;2022-12-11T13:09:25;-0.70;99.90
22678;DHT22;26259;50.214;18.620;2022-12-11T13:11:54;-0.70;99.90
22678;DHT22;26259;50.214;18.620;2022-12-11T13:14:31;-0.70;99.90
22678;DHT22;26259;50.214;18.620;2022-12-11T13:17:36;-0.70;99.90
22678;DHT22;26259;50.214;18.620;2022-12-11T13:20:15;-0.70;99.90
22678;DHT22;26259;50.214;18.620;2022-12-11T13:25:55;-0.80;99.90
22678;DHT22;26259;50.214;18.620;2022-12-11T13:28:26;-0.80;99.90
22678;DHT22;26259;50.214;18.620;2022-12-11T13:31:00;-0.90;99.90
22678;DHT22;26259;50.214;18.620;2022-12-11T13:33:27;-0.90;99.90
22678;DHT22;26259;50.214;18.620;2022-12-11T13:38:36;-0.90;99.90
22678;DHT22;26259;50.214;18.620;2022-12-11T13:41:09;-0.90;99.90
22678;DHT22;26259;50.214;18.620;2022-12-11T13:43:35;-1.00;99.90
22678;DHT22;26259;50.214;18.620;2022-12-11T13:46:06;-1.00;99.90
22678;DHT22;26259;50.214;18.620;2022-12-11T13:48:45;-1.00;99.90
22678;DHT22;26259;50.214;18.620;2022-12-11T13:51:23;-1.00;99.90
22678;DHT22;26259;50.214;18.620;2022-12-11T13:54:01;-1.00;99.90
22678;DHT22;26259;50.214;18.620;2022-12-11T13:56:27;-1.00;99.90
22678;DHT22;26259;50.214;18.620;2022-12-11T13:58:53;-1.00;99.90
22678;DHT22;26259;50.214;18.620;2022-12-11T14:01:32;-1.10;99.90
22678;DHT22;26259;50.214;18.620;2022-12-11T14:04:07;-1.20;99.90
22678;DHT22;26259;50.214;18.620;2022-12-11T14:06:34;-1.10;99.90
22678;DHT22;26259;50.214;18.620;2022-12-11T14:09:02;-1.20;99.90
22678;DHT22;26259;50.214;18.620;2022-12-11T14:11:40;-1.20;99.90
22678;DHT22;26259;50.214;18.620;2022-12-11T14:14:16;-1.30;99.90
22678;DHT22;26259;50.214;18.620;2022-12-11T14:16:46;-1.30;99.90
22678;DHT22;26259;50.214;18.620;2022-12-11T14:19:15;-1.30;99.90
22678;DHT22;26259;50.214;18.620;2022-12-11T14:21:41;-1.30;99.90
22678;DHT22;26259;50.214;18.620;2022-12-11T14:24:11;-1.30;99.90
22678;DHT22;26259;50.214;18.620;2022-12-11T14:26:36;-1.40;99.90
22678;DHT22;26259;50.214;18.620;2022-12-11T14:29:04;-1.40;99.90
22678;DHT22;26259;50.214;18.620;2022-12-11T14:31:34;-1.40;99.90
22678;DHT22;26259;50.214;18.620;2022-12-11T14:34:14;-1.40;99.90
22678;DHT22;26259;50.214;18.620;2022-12-11T14:36:42;-1.40;99.90
22678;DHT22;26259;50.214;18.620;2022-12-11T14:39:12;-1.50;99.90
22678;DHT22;26259;50.214;18.620;2022-12-11T14:41:54;-1.50;99.90
22678;DHT22;26259;50.214;18.620;2022-12-11T14:44:23;-1.50;99.90
22678;DHT22;26259;50.214;18.620;2022-12-11T14:47:14;-1.50;99.90
22678;DHT22;26259;50.214;18.620;2022-12-11T14:49:51;-1.50;99.90
22678;DHT22;26259;50.214;18.620;2022-12-11T14:52:24;-1.50;99.90
22678;DHT22;26259;50.214;18.620;2022-12-11T14:54:58;-1.50;99.90
22678;DHT22;26259;50.214;18.620;2022-12-11T14:57:28;-1.60;99.90
22678;DHT22;26259;50.214;18.620;2022-12-11T14:59:55;-1.60;99.90
22678;DHT22;26259;50.214;18.620;2022-12-11T15:02:31;-1.50;99.90
22678;DHT22;26259;50.214;18.620;2022-12-11T15:05:16;-1.50;99.90
22678;DHT22;26259;50.214;18.620;2022-12-11T15:07:54;-1.50;99.90
22678;DHT22;26259;50.214;18.620;2022-12-11T15:10:26;-1.60;99.90
22678;DHT22;26259;50.214;18.620;2022-12-11T15:12:55;-1.60;99.90
22678;DHT22;26259;50.214;18.620;2022-12-11T15:15:21;-1.60;99.90
22678;DHT22;26259;50.214;18.620;2022-12-11T15:17:50;-1.60;99.90
22678;DHT22;26259;50.214;18.620;2022-12-11T15:20:22;-1.60;99.90
22678;DHT22;26259;50.214;18.620;2022-12-11T15:22:49;-1.60;99.90
22678;DHT22;26259;50.214;18.620;2022-12-11T15:25:20;-1.60;99.90
22678;DHT22;26259;50.214;18.620;2022-12-11T15:27:50;-1.60;99.90
22678;DHT22;26259;50.214;18.620;2022-12-11T15:32:44;-1.60;99.90
22678;DHT22;26259;50.214;18.620;2022-12-11T15:35:24;-1.60;99.90
22678;DHT22;26259;50.214;18.620;2022-12-11T15:37:56;-1.60;99.90
22678;DHT22;26259;50.214;18.620;2022-12-11T15:40:22;-1.60;99.90
22678;DHT22;26259;50.214;18.620;2022-12-11T15:42:49;-1.70;99.90
22678;DHT22;26259;50.214;18.620;2022-12-11T15:45:24;-1.70;99.90
22678;DHT22;26259;50.214;18.620;2022-12-11T15:47:51;-1.70;99.90
22678;DHT22;26259;50.214;18.620;2022-12-11T15:50:25;-1.70;99.90
22678;DHT22;26259;50.214;18.620;2022-12-11T15:52:52;-1.70;99.90
22678;DHT22;26259;50.214;18.620;2022-12-11T15:55:20;-1.70;99.90
22678;DHT22;26259;50.214;18.620;2022-12-11T15:57:54;-1.70;99.90
22678;DHT22;26259;50.214;18.620;2022-12-11T16:00:22;-1.60;99.90
22678;DHT22;26259;50.214;18.620;2022-12-11T16:02:49;-1.60;99.90
22678;DHT22;26259;50.214;18.620;2022-12-11T16:05:15;-1.60;99.90
22678;DHT22;26259;50.214;18.620;2022-12-11T16:07:40;-1.60;99.90
22678;DHT22;26259;50.214;18.620;2022-12-11T16:10:09;-1.60;99.90
22678;DHT22;26259;50.214;18.620;2022-12-11T16:12:36;-1.60;99.90
22678;DHT22;26259;50.214;18.620;2022-12-11T16:15:02;-1.70;99.90
22678;DHT22;26259;50.214;18.620;2022-12-11T16:17:28;-1.70;99.90
22678;DHT22;26259;50.214;18.620;2022-12-11T16:19:54;-1.70;99.90
22678;DHT22;26259;50.214;18.620;2022-12-11T16:22:19;-1.70;99.90
22678;DHT22;26259;50.214;18.620;2022-12-11T16:24:45;-1.70;99.90
22678;DHT22;26259;50.214;18.620;2022-12-11T16:27:10;-1.70;99.90
22678;DHT22;26259;50.214;18.620;2022-12-11T16:29:38;-1.70;99.90
22678;DHT22;26259;50.214;18.620;2022-12-11T16:32:04;-1.70;99.90
22678;DHT22;26259;50.214;18.620;2022-12-11T16:34:31;-1.80;99.90
22678;DHT22;26259;50.214;18.620;2022-12-11T16:36:58;-1.80;99.90
22678;DHT22;26259;50.214;18.620;2022-12-11T16:39:24;-1.80;99.90
22678;DHT22;26259;50.214;18.620;2022-12-11T16:41:49;-1.80;99.90
22678;DHT22;26259;50.214;18.620;2022-12-11T16:44:19;-1.80;99.90
22678;DHT22;26259;50.214;18.620;2022-12-11T16:46:44;-1.80;99.90
22678;DHT22;26259;50.214;18.620;2022-12-11T16:49:10;-1.90;99.90
22678;DHT22;26259;50.214;18.620;2022-12-11T16:51:35;-1.90;99.90
22678;DHT22;26259;50.214;18.620;2022-12-11T16:54:01;-1.80;99.90
22678;DHT22;26259;50.214;18.620;2022-12-11T16:56:27;-1.80;99.90
22678;DHT22;26259;50.214;18.620;2022-12-11T16:58:53;-1.70;99.90